Time;durP1;ratioP1;P1;durP2;ratioP2;P2;SDS_P1;SDS_P2;PMS_P1;PMS_P2;Temp;Humidity;BMP_temperature;BMP_pressure;BME280_temperature;BME280_humidity;BME280_pressure;Samples;Min_cycle;Max_cycle;Signal;HPM_P1;HPM_P2
2022/07/05 00:01:40;;;;;;;;;;;;;;;;;;4998602;28;7139;-51
2022/07/05 00:04:06;;;;;;;;;;;;;;;;;;4998114;28;6933;-52
2022/07/05 00:09:34;;;;;;;;;;;;;;;;;;4998870;28;6682;-53
2022/07/05 00:12:00;;;;;;;;;;;;;;;;;;4998632;28;8270;-54
2022/07/05 00:14:25;;;;;;;;;;;;;;;;;;4998705;28;7202;-53
2022/07/05 00:17:20;;;;;;;;;;;;;;;;;;4998495;28;7118;-54
2022/07/05 00:19:46;;;;;;;;;;;;;;;;;;4998837;28;7018;-50
2022/07/05 00:22:12;;;;;;;;;;;;;;;;;;4997975;28;6804;-60
2022/07/05 00:24:37;;;;;;;;;;;;;;;;;;4999318;28;7111;-60
2022/07/05 00:27:05;;;;;;;;;;;;;;;;;;4998416;28;6792;-60
2022/07/05 00:29:30;;;;;;;;;;;;;;;;;;4998889;28;6820;-60
2022/07/05 00:32:05;;;;;;;;;;;;;;;;;;4998604;28;7254;-60
2022/07/05 00:34:31;;;;;;;;;;;;;;;;;;4998357;28;7083;-60
2022/07/05 00:36:56;;;;;;;;;;;;;;;;;;4997666;28;6982;-60
2022/07/05 00:39:24;;;;;;;;;;;;;;;;;;4997759;28;6984;-60
2022/07/05 00:41:49;;;;;;;;;;;;;;;;;;4998450;28;7273;-60
2022/07/05 00:44:15;;;;;;;;;;;;;;;;;;4998912;28;6921;-60
2022/07/05 00:46:42;;;;;;;;;;;;;;;;;;4998715;28;7096;-60
2022/07/05 00:49:08;;;;;;;;;;;;;;;;;;4998523;28;7396;-60
2022/07/05 00:51:40;;;;;;;;;;;;;;;;;;4998181;28;6992;-60
2022/07/05 00:54:07;;;;;;;;;;;;;;;;;;4997466;28;7141;-60
2022/07/05 00:56:32;;;;;;;;;;;;;;;;;;4997632;28;6898;-60
2022/07/05 00:58:58;;;;;;;;;;;;;;;;;;4997756;28;7030;-60
2022/07/05 01:01:26;;;;;;;;;;;;;;;;;;4996387;28;7268;-60
2022/07/05 01:04:10;;;;;;;;;;;;;;;;;;4998040;28;7289;-60
2022/07/05 01:06:36;;;;;;;;;;;;;;;;;;4997479;28;7207;-60
2022/07/05 01:09:02;;;;;;;;;;;;;;;;;;4997335;28;7119;-60
2022/07/05 01:14:30;;;;;;;;;;;;;;;;;;4997305;28;6955;-60
2022/07/05 01:17:08;;;;;;;;;;;;;;;;;;4996837;28;7337;-60
2022/07/05 01:19:34;;;;;;;;;;;;;;;;;;4996873;28;7197;-61
2022/07/05 01:22:23;;;;;;;;;;;;;;;;;;4997900;28;7177;-61
2022/07/05 01:24:50;;;;;;;;;;;;;;;;;;4997826;28;6812;-61
2022/07/05 01:27:16;;;;;;;;;;;;;;;;;;4995835;28;8498;-61
2022/07/05 01:29:42;;;;;;;;;;;;;;;;;;4997916;28;6965;-61
2022/07/05 01:32:09;;;;;;;;;;;;;;;;;;4997093;28;6953;-61
2022/07/05 01:34:53;;;;;;;;;;;;;;;;;;4997683;28;6852;-61
2022/07/05 01:37:19;;;;;;;;;;;;;;;;;;4997636;28;7090;-61
2022/07/05 01:39:45;;;;;;;;;;;;;;;;;;4996841;28;7109;-61
2022/07/05 01:42:10;;;;;;;;;;;;;;;;;;4996229;28;6912;-61
2022/07/05 01:44:39;;;;;;;;;;;;;;;;;;4997125;28;7370;-61
2022/07/05 01:47:06;;;;;;;;;;;;;;;;;;4996943;28;7008;-61
2022/07/05 01:49:39;;;;;;;;;;;;;;;;;;4996610;28;7325;-61
2022/07/05 01:52:28;;;;;;;;;;;;;;;;;;4997492;28;7903;-61
2022/07/05 01:54:54;;;;;;;;;;;;;;;;;;4997963;28;7259;-61
2022/07/05 01:57:31;;;;;;;;;;;;;;;;;;4997272;28;7171;-60
2022/07/05 02:00:03;;;;;;;;;;;;;;;;;;4997219;28;7142;-60
2022/07/05 02:02:28;;;;;;;;;;;;;;;;;;4997536;28;6938;-60
2022/07/05 02:04:54;;;;;;;;;;;;;;;;;;4996007;28;6932;-60
2022/07/05 02:07:37;;;;;;;;;;;;;;;;;;4996446;28;6921;-60
2022/07/05 02:10:03;;;;;;;;;;;;;;;;;;4996649;28;6984;-60
2022/07/05 02:12:29;;;;;;;;;;;;;;;;;;4998084;28;7245;-60
2022/07/05 02:15:10;;;;;;;;;;;;;;;;;;4996498;28;7144;-60
2022/07/05 02:17:37;;;;;;;;;;;;;;;;;;4996747;28;7889;-60
2022/07/05 02:20:25;;;;;;;;;;;;;;;;;;4996110;28;7103;-60
2022/07/05 02:22:50;;;;;;;;;;;;;;;;;;4995981;28;7194;-60
2022/07/05 02:25:33;;;;;;;;;;;;;;;;;;4996765;28;7923;-60
2022/07/05 02:27:59;;;;;;;;;;;;;;;;;;4980357;28;8326;-60
2022/07/05 02:30:59;;;;;;;;;;;;;;;;;;4997137;28;7135;-60
2022/07/05 02:33:25;;;;;;;;;;;;;;;;;;4997407;28;7005;-60
2022/07/05 02:35:50;;;;;;;;;;;;;;;;;;4995895;28;7179;-60
2022/07/05 02:38:16;;;;;;;;;;;;;;;;;;4996458;28;6927;-60
2022/07/05 02:40:42;;;;;;;;;;;;;;;;;;4997398;28;6993;-60
2022/07/05 02:43:07;;;;;;;;;;;;;;;;;;4996860;28;7131;-60
2022/07/05 02:45:33;;;;;;;;;;;;;;;;;;4996904;28;7199;-60
2022/07/05 02:47:59;;;;;;;;;;;;;;;;;;4996414;28;6909;-60
2022/07/05 02:50:24;;;;;;;;;;;;;;;;;;4995373;28;7609;-60
2022/07/05 02:52:50;;;;;;;;;;;;;;;;;;4979062;28;9316;-60
2022/07/05 02:55:15;;;;;;;;;;;;;;;;;;4996570;28;6902;-61
2022/07/05 02:57:41;;;;;;;;;;;;;;;;;;4995447;28;7273;-61
2022/07/05 03:00:23;;;;;;;;;;;;;;;;;;4995124;28;7025;-61
2022/07/05 03:02:49;;;;;;;;;;;;;;;;;;4995661;28;7065;-60
2022/07/05 03:05:19;;;;;;;;;;;;;;;;;;4997634;28;7319;-60
2022/07/05 03:07:45;;;;;;;;;;;;;;;;;;4996243;28;7174;-60
2022/07/05 03:10:10;;;;;;;;;;;;;;;;;;4997505;28;7119;-60
2022/07/05 03:12:36;;;;;;;;;;;;;;;;;;4995172;28;7224;-60
2022/07/05 03:15:02;;;;;;;;;;;;;;;;;;4995141;28;7375;-60
2022/07/05 03:17:27;;;;;;;;;;;;;;;;;;4994999;28;7178;-60
2022/07/05 03:19:53;;;;;;;;;;;;;;;;;;4994897;28;7313;-60
2022/07/05 03:25:41;;;;;;;;;;;;;;;;;;4998448;28;7015;-60
2022/07/05 03:28:07;;;;;;;;;;;;;;;;;;5000184;28;7130;-60
2022/07/05 03:30:55;;;;;;;;;;;;;;;;;;4998987;28;7043;-60
2022/07/05 03:33:21;;;;;;;;;;;;;;;;;;4998982;28;7091;-60
2022/07/05 03:35:46;;;;;;;;;;;;;;;;;;4998941;28;7223;-60
2022/07/05 03:41:14;;;;;;;;;;;;;;;;;;4997769;28;6693;-60
2022/07/05 03:43:40;;;;;;;;;;;;;;;;;;4998583;28;7019;-60
2022/07/05 03:49:08;;;;;;;;;;;;;;;;;;4999531;28;6686;-60
2022/07/05 03:51:34;;;;;;;;;;;;;;;;;;4999155;28;7149;-60
2022/07/05 03:54:03;;;;;;;;;;;;;;;;;;4999374;28;7114;-60
2022/07/05 03:56:29;;;;;;;;;;;;;;;;;;4999387;28;7110;-60
2022/07/05 03:58:55;;;;;;;;;;;;;;;;;;4999585;28;7247;-60
2022/07/05 04:01:26;;;;;;;;;;;;;;;;;;4998899;28;7054;-60
2022/07/05 04:03:52;;;;;;;;;;;;;;;;;;4998603;28;7131;-60
2022/07/05 04:06:17;;;;;;;;;;;;;;;;;;4998364;28;7074;-60
2022/07/05 04:08:50;;;;;;;;;;;;;;;;;;4998993;28;7062;-61
2022/07/05 04:11:16;;;;;;;;;;;;;;;;;;4998585;28;6881;-61
2022/07/05 04:13:42;;;;;;;;;;;;;;;;;;4998403;28;7238;-61
2022/07/05 04:16:10;;;;;;;;;;;;;;;;;;4997970;28;7138;-61
2022/07/05 04:18:35;;;;;;;;;;;;;;;;;;4998223;28;6825;-61
2022/07/05 04:21:04;;;;;;;;;;;;;;;;;;4998604;28;7175;-61
2022/07/05 04:23:29;;;;;;;;;;;;;;;;;;4998033;28;6997;-61
2022/07/05 04:25:55;;;;;;;;;;;;;;;;;;4999045;28;7241;-61
2022/07/05 04:28:29;;;;;;;;;;;;;;;;;;4997147;28;7093;-62
2022/07/05 04:30:56;;;;;;;;;;;;;;;;;;4988737;28;7369;-62
2022/07/05 04:33:22;;;;;;;;;;;;;;;;;;4996715;28;7349;-62
2022/07/05 04:35:47;;;;;;;;;;;;;;;;;;4996663;28;6944;-62
2022/07/05 04:38:13;;;;;;;;;;;;;;;;;;4997337;28;7389;-62
2022/07/05 04:40:39;;;;;;;;;;;;;;;;;;4992334;28;7039;-62
2022/07/05 04:43:05;;;;;;;;;;;;;;;;;;4993448;28;7206;-62
2022/07/05 04:45:44;;;;;;;;;;;;;;;;;;4978069;28;7154;-62
2022/07/05 04:48:09;;;;;;;;;;;;;;;;;;4996372;28;7212;-62
2022/07/05 04:51:02;;;;;;;;;;;;;;;;;;4984549;28;7334;-62
2022/07/05 04:53:27;;;;;;;;;;;;;;;;;;4977892;28;7061;-62
2022/07/05 04:55:56;;;;;;;;;;;;;;;;;;4978254;28;7005;-62
2022/07/05 04:58:21;;;;;;;;;;;;;;;;;;4978085;28;6958;-62
2022/07/05 05:00:48;;;;;;;;;;;;;;;;;;4977997;28;7154;-62
2022/07/05 05:03:14;;;;;;;;;;;;;;;;;;4990697;28;7195;-62
2022/07/05 05:05:53;;;;;;;;;;;;;;;;;;4997820;28;7137;-56
2022/07/05 05:08:19;;;;;;;;;;;;;;;;;;4989378;28;6828;-62
2022/07/05 05:10:45;;;;;;;;;;;;;;;;;;4979014;28;7159;-62
2022/07/05 05:13:30;;;;;;;;;;;;;;;;;;4997296;28;7287;-62
2022/07/05 05:15:56;;;;;;;;;;;;;;;;;;4982971;28;7073;-62
2022/07/05 05:18:38;;;;;;;;;;;;;;;;;;4997280;28;7192;-62
2022/07/05 05:21:04;;;;;;;;;;;;;;;;;;4997138;28;7291;-62
2022/07/05 05:23:29;;;;;;;;;;;;;;;;;;4996828;28;7270;-62
2022/07/05 05:25:59;;;;;;;;;;;;;;;;;;4997480;28;7165;-62
2022/07/05 05:28:24;;;;;;;;;;;;;;;;;;4996822;28;7180;-62
2022/07/05 05:30:50;;;;;;;;;;;;;;;;;;4997030;28;7154;-62
2022/07/05 05:33:20;;;;;;;;;;;;;;;;;;4997585;28;7005;-56
2022/07/05 05:35:46;;;;;;;;;;;;;;;;;;4994452;28;6993;-56
2022/07/05 05:38:31;;;;;;;;;;;;;;;;;;4996428;28;6806;-54
2022/07/05 05:40:57;;;;;;;;;;;;;;;;;;4996232;28;7246;-55
2022/07/05 05:43:22;;;;;;;;;;;;;;;;;;4995513;28;7201;-55
2022/07/05 05:45:58;;;;;;;;;;;;;;;;;;4996125;28;7218;-56
2022/07/05 05:48:23;;;;;;;;;;;;;;;;;;4995571;28;7130;-55
2022/07/05 05:50:56;;;;;;;;;;;;;;;;;;4996190;28;6942;-56
2022/07/05 05:53:22;;;;;;;;;;;;;;;;;;4996091;28;6969;-55
2022/07/05 05:55:48;;;;;;;;;;;;;;;;;;4978645;28;8459;-55
2022/07/05 05:58:15;;;;;;;;;;;;;;;;;;4995497;28;6938;-56
2022/07/05 06:00:52;;;;;;;;;;;;;;;;;;4995713;28;7286;-56
2022/07/05 06:03:21;;;;;;;;;;;;;;;;;;4995987;28;7424;-56
2022/07/05 06:06:21;;;;;;;;;;;;;;;;;;4995624;28;7189;-56
2022/07/05 06:08:47;;;;;;;;;;;;;;;;;;4994858;28;8444;-55
2022/07/05 06:11:32;;;;;;;;;;;;;;;;;;4995485;28;6947;-53
2022/07/05 06:13:58;;;;;;;;;;;;;;;;;;4995288;28;7298;-56
2022/07/05 06:19:26;;;;;;;;;;;;;;;;;;4993258;28;6716;-57
2022/07/05 06:21:52;;;;;;;;;;;;;;;;;;4995061;28;7365;-56
2022/07/05 06:24:18;;;;;;;;;;;;;;;;;;4995197;28;7159;-55
2022/07/05 06:26:44;;;;;;;;;;;;;;;;;;4995939;28;6965;-55
2022/07/05 06:29:23;;;;;;;;;;;;;;;;;;4995358;28;7353;-55
2022/07/05 06:31:48;;;;;;;;;;;;;;;;;;4995270;28;7272;-55
2022/07/05 06:34:16;;;;;;;;;;;;;;;;;;4995370;28;7165;-55
2022/07/05 06:36:41;;;;;;;;;;;;;;;;;;4994880;28;7022;-55
2022/07/05 06:39:07;;;;;;;;;;;;;;;;;;4995056;28;7180;-57
2022/07/05 06:41:32;;;;;;;;;;;;;;;;;;4994826;28;7131;-56
2022/07/05 06:44:05;;;;;;;;;;;;;;;;;;4994851;28;7111;-56
2022/07/05 06:46:38;;;;;;;;;;;;;;;;;;4987517;28;7565;-55
2022/07/05 06:49:04;;;;;;;;;;;;;;;;;;4994851;28;7329;-54
2022/07/05 06:54:44;;;;;;;;;;;;;;;;;;4995383;28;6927;-55
2022/07/05 06:57:10;;;;;;;;;;;;;;;;;;4995022;28;7346;-54
2022/07/05 06:59:41;;;;;;;;;;;;;;;;;;4996259;28;7089;-55
2022/07/05 07:02:07;;;;;;;;;;;;;;;;;;4999834;28;6832;-56
2022/07/05 07:04:38;;;;;;;;;;;;;;;;;;4999474;28;7126;-55
2022/07/05 07:09:17;;;;;;;;;;;;;;;;;;4999633;28;7234;-55
2022/07/05 07:13:27;;;;;;;;;;;;;;;;;;5018362;28;6710;-56
2022/07/05 07:15:53;;;;;;;;;;;;;;;;;;5018686;28;7047;-56
2022/07/05 07:18:32;;;;;;;;;;;;;;;;;;5018529;28;7049;-56
2022/07/05 07:20:57;;;;;;;;;;;;;;;;;;5018474;28;6966;-54
2022/07/05 07:26:13;;;;;;;;;;;;;;;;;;5018395;28;6761;-56
2022/07/05 07:31:26;;;;;;;;;;;;;;;;;;4977075;28;6937;-53
2022/07/05 07:34:00;;;;;;;;;;;;;;;;;;4979037;28;7096;-54
2022/07/05 07:36:25;;;;;;;;;;;;;;;;;;4978958;28;7283;-56
2022/07/05 07:39:07;;;;;;;;;;;;;;;;;;4978573;28;7430;-55
2022/07/05 07:41:32;;;;;;;;;;;;;;;;;;4978627;28;6961;-56
2022/07/05 07:44:22;;;;;;;;;;;;;;;;;;4979078;28;7115;-56
2022/07/05 07:46:47;;;;;;;;;;;;;;;;;;4976751;28;7120;-57
2022/07/05 07:49:23;;;;;;;;;;;;;;;;;;4977791;28;7389;-57
2022/07/05 07:51:48;;;;;;;;;;;;;;;;;;4978686;28;7345;-56
2022/07/05 07:54:20;;;;;;;;;;;;;;;;;;4979048;28;6960;-56
2022/07/05 07:56:45;;;;;;;;;;;;;;;;;;4978908;28;7263;-56
2022/07/05 07:59:18;;;;;;;;;;;;;;;;;;4978448;28;7221;-56
2022/07/05 08:01:43;;;;;;;;;;;;;;;;;;4977990;28;7214;-56
2022/07/05 08:04:28;;;;;;;;;;;;;;;;;;4978308;28;7034;-56
2022/07/05 08:06:53;;;;;;;;;;;;;;;;;;4978932;28;7245;-56
2022/07/05 08:12:25;;;;;;;;;;;;;;;;;;4977760;28;7031;-57
2022/07/05 08:14:50;;;;;;;;;;;;;;;;;;4978426;28;6959;-54
2022/07/05 08:17:24;;;;;;;;;;;;;;;;;;4978167;28;7362;-57
2022/07/05 08:22:42;;;;;;;;;;;;;;;;;;4978375;28;6952;-58
2022/07/05 08:25:08;;;;;;;;;;;;;;;;;;4976741;28;8763;-58
2022/07/05 08:27:47;;;;;;;;;;;;;;;;;;4977716;28;7509;-57
2022/07/05 08:30:36;;;;;;;;;;;;;;;;;;4978000;28;7317;-56
2022/07/05 08:33:01;;;;;;;;;;;;;;;;;;4977877;28;7359;-53
2022/07/05 08:35:27;;;;;;;;;;;;;;;;;;4977760;28;7217;-57
2022/07/05 08:37:53;;;;;;;;;;;;;;;;;;4954577;28;12599;-58
2022/07/05 08:40:29;;;;;;;;;;;;;;;;;;4977365;28;7125;-58
2022/07/05 08:42:56;;;;;;;;;;;;;;;;;;4976714;28;7193;-57
2022/07/05 08:45:25;;;;;;;;;;;;;;;;;;4977362;28;7017;-57
2022/07/05 08:47:51;;;;;;;;;;;;;;;;;;4977465;28;7170;-55
2022/07/05 08:50:39;;;;;;;;;;;;;;;;;;4977892;28;7227;-56
2022/07/05 08:53:05;;;;;;;;;;;;;;;;;;4977481;28;7207;-55
2022/07/05 08:55:35;;;;;;;;;;;;;;;;;;4977491;28;6859;-57
2022/07/05 08:58:01;;;;;;;;;;;;;;;;;;4977705;28;7193;-55
2022/07/05 09:00:27;;;;;;;;;;;;;;;;;;4977229;28;7309;-57
2022/07/05 09:02:53;;;;;;;;;;;;;;;;;;4975792;28;6846;-57
2022/07/05 09:05:23;;;;;;;;;;;;;;;;;;4976783;28;7135;-57
2022/07/05 09:07:56;;;;;;;;;;;;;;;;;;4977198;28;7131;-57
2022/07/05 09:10:25;;;;;;;;;;;;;;;;;;4976970;28;6997;-62
2022/07/05 09:12:50;;;;;;;;;;;;;;;;;;4976912;28;7204;-62
2022/07/05 09:15:30;;;;;;;;;;;;;;;;;;4977235;28;7058;-63
2022/07/05 09:17:56;;;;;;;;;;;;;;;;;;4976662;28;7509;-60
2022/07/05 09:20:33;;;;;;;;;;;;;;;;;;4977215;28;7096;-59
2022/07/05 09:22:59;;;;;;;;;;;;;;;;;;4976519;28;7030;-59
2022/07/05 09:25:27;;;;;;;;;;;;;;;;;;4977170;28;7168;-60
2022/07/05 09:28:14;;;;;;;;;;;;;;;;;;4976099;28;7518;-60
2022/07/05 09:30:49;;;;;;;;;;;;;;;;;;4976614;28;7147;-59
2022/07/05 09:33:16;;;;;;;;;;;;;;;;;;4976932;28;6977;-59
2022/07/05 09:38:49;;;;;;;;;;;;;;;;;;4976732;28;6836;-59
2022/07/05 09:41:15;;;;;;;;;;;;;;;;;;4976381;28;7186;-59
2022/07/05 09:43:46;;;;;;;;;;;;;;;;;;4976744;28;7204;-59
2022/07/05 09:46:13;;;;;;;;;;;;;;;;;;4991568;28;7473;-59
2022/07/05 09:48:51;;;;;;;;;;;;;;;;;;4995738;28;7447;-61
2022/07/05 09:51:17;;;;;;;;;;;;;;;;;;4995663;28;7446;-61
2022/07/05 09:54:07;;;;;;;;;;;;;;;;;;4996077;28;7530;-60
2022/07/05 09:56:48;;;;;;;;;;;;;;;;;;4996109;28;7369;-60
2022/07/05 09:59:19;;;;;;;;;;;;;;;;;;4996091;28;7345;-60
2022/07/05 10:01:46;;;;;;;;;;;;;;;;;;4995761;28;7218;-60
2022/07/05 10:04:12;;;;;;;;;;;;;;;;;;4994809;28;8490;-60
2022/07/05 10:06:51;;;;;;;;;;;;;;;;;;4995726;28;7160;-60
2022/07/05 10:09:18;;;;;;;;;;;;;;;;;;4975597;28;7104;-56
2022/07/05 10:12:08;;;;;;;;;;;;;;;;;;4975988;28;7242;-56
2022/07/05 10:14:33;;;;;;;;;;;;;;;;;;4975415;28;7306;-57
2022/07/05 10:26:24;;;;;;;;;;;;;;;;;;4974573;28;6988;-58
2022/07/05 10:29:12;;;;;;;;;;;;;;;;;;4958582;28;7280;-58
2022/07/05 10:31:39;;;;;;;;;;;;;;;;;;4956732;28;7164;-58
2022/07/05 10:37:14;;;;;;;;;;;;;;;;;;4956664;28;7001;-58
2022/07/05 10:39:39;;;;;;;;;;;;;;;;;;4956699;28;7433;-58
2022/07/05 10:42:18;;;;;;;;;;;;;;;;;;4956532;28;7187;-58
2022/07/05 10:44:44;;;;;;;;;;;;;;;;;;4956959;28;7478;-58
2022/07/05 10:47:11;;;;;;;;;;;;;;;;;;4957904;28;7323;-59
2022/07/05 10:49:38;;;;;;;;;;;;;;;;;;4957681;28;6950;-58
2022/07/05 10:55:19;;;;;;;;;;;;;;;;;;4956976;29;6756;-59
2022/07/05 11:00:31;;;;;;;;;;;;;;;;;;4956722;29;6806;-58
2022/07/05 11:03:24;;;;;;;;;;;;;;;;;;4956557;29;7621;-59
2022/07/05 11:05:50;;;;;;;;;;;;;;;;;;4956566;29;6994;-59
2022/07/05 11:08:27;;;;;;;;;;;;;;;;;;4956936;28;7654;-58
2022/07/05 11:11:10;;;;;;;;;;;;;;;;;;4956265;29;6970;-58
2022/07/05 11:13:43;;;;;;;;;;;;;;;;;;4956305;29;7249;-58
2022/07/05 11:16:27;;;;;;;;;;;;;;;;;;4956428;29;7664;-59
2022/07/05 11:22:05;;;;;;;;;;;;;;;;;;4956533;29;7017;-58
2022/07/05 11:24:31;;;;;;;;;;;;;;;;;;4957631;29;7464;-58
2022/07/05 11:26:58;;;;;;;;;;;;;;;;;;4958131;29;7112;-58
2022/07/05 11:29:48;;;;;;;;;;;;;;;;;;4957477;28;7204;-58
2022/07/05 11:32:16;;;;;;;;;;;;;;;;;;4956512;29;7491;-59
2022/07/05 11:34:43;;;;;;;;;;;;;;;;;;4956433;29;7203;-58
2022/07/05 11:37:32;;;;;;;;;;;;;;;;;;4956413;29;7209;-59
2022/07/05 11:40:07;;;;;;;;;;;;;;;;;;4953168;29;7336;-59
2022/07/05 11:42:42;;;;;;;;;;;;;;;;;;4956359;29;7177;-58
2022/07/05 11:45:11;;;;;;;;;;;;;;;;;;4955808;28;7171;-59
2022/07/05 11:47:36;;;;;;;;;;;;;;;;;;4958784;28;7212;-58
2022/07/05 11:50:04;;;;;;;;;;;;;;;;;;4959992;28;7288;-58
2022/07/05 11:52:31;;;;;;;;;;;;;;;;;;4959295;28;8247;-58
2022/07/05 11:55:21;;;;;;;;;;;;;;;;;;4959385;28;7151;-58
2022/07/05 11:57:50;;;;;;;;;;;;;;;;;;4959231;28;7426;-58
2022/07/05 12:00:33;;;;;;;;;;;;;;;;;;4959422;28;6995;-58
2022/07/05 12:03:18;;;;;;;;;;;;;;;;;;4964725;28;7138;-58
2022/07/05 12:05:43;;;;;;;;;;;;;;;;;;4978942;28;7464;-58
2022/07/05 12:08:31;;;;;;;;;;;;;;;;;;4978574;28;7171;-58
2022/07/05 12:14:15;;;;;;;;;;;;;;;;;;4978973;28;6823;-58
2022/07/05 12:16:40;;;;;;;;;;;;;;;;;;4978302;28;7037;-58
2022/07/05 12:19:34;;;;;;;;;;;;;;;;;;4979032;28;7359;-58
2022/07/05 12:22:00;;;;;;;;;;;;;;;;;;4978536;28;6967;-58
2022/07/05 12:24:25;;;;;;;;;;;;;;;;;;4978125;28;7022;-58
2022/07/05 12:26:51;;;;;;;;;;;;;;;;;;4978542;28;7171;-58
2022/07/05 12:29:18;;;;;;;;;;;;;;;;;;4978248;28;7962;-58
2022/07/05 12:32:08;;;;;;;;;;;;;;;;;;4983977;28;7010;-58
2022/07/05 12:34:41;;;;;;;;;;;;;;;;;;4977932;28;7024;-58
2022/07/05 12:37:06;;;;;;;;;;;;;;;;;;4977383;28;8418;-58
2022/07/05 12:39:32;;;;;;;;;;;;;;;;;;4978232;28;7401;-58
2022/07/05 12:42:32;;;;;;;;;;;;;;;;;;4976926;28;8449;-58
2022/07/05 12:45:14;;;;;;;;;;;;;;;;;;4977708;28;7008;-59
2022/07/05 12:47:50;;;;;;;;;;;;;;;;;;4978018;28;7182;-55
2022/07/05 12:50:18;;;;;;;;;;;;;;;;;;4977974;28;7274;-54
2022/07/05 12:58:51;;;;;;;;;;;;;;;;;;4977255;28;7062;-55
2022/07/05 13:01:21;;;;;;;;;;;;;;;;;;4977893;28;7137;-56
2022/07/05 13:04:06;;;;;;;;;;;;;;;;;;4977458;28;7011;-55
2022/07/05 13:06:42;;;;;;;;;;;;;;;;;;4977722;28;7086;-57
2022/07/05 13:09:08;;;;;;;;;;;;;;;;;;4975530;28;7212;-57
2022/07/05 13:11:33;;;;;;;;;;;;;;;;;;4957215;28;7020;-57
2022/07/05 13:13:59;;;;;;;;;;;;;;;;;;4957838;28;7444;-57
2022/07/05 13:16:24;;;;;;;;;;;;;;;;;;4957821;28;7291;-56
2022/07/05 13:19:23;;;;;;;;;;;;;;;;;;4957471;28;7528;-56
2022/07/05 13:21:49;;;;;;;;;;;;;;;;;;4956216;28;8746;-56
2022/07/05 13:24:17;;;;;;;;;;;;;;;;;;4957503;28;7220;-56
2022/07/05 13:26:42;;;;;;;;;;;;;;;;;;4957559;28;7269;-56
2022/07/05 13:29:29;;;;;;;;;;;;;;;;;;4957641;28;7436;-54
2022/07/05 13:35:38;;;;;;;;;;;;;;;;;;4977020;28;7032;-56
2022/07/05 13:38:04;;;;;;;;;;;;;;;;;;4976924;28;7235;-56
2022/07/05 13:40:32;;;;;;;;;;;;;;;;;;4977402;28;7170;-58
2022/07/05 13:42:58;;;;;;;;;;;;;;;;;;4977060;28;7441;-56
2022/07/05 13:45:40;;;;;;;;;;;;;;;;;;4974448;28;7184;-57
2022/07/05 13:48:06;;;;;;;;;;;;;;;;;;4995590;28;7328;-57
2022/07/05 13:50:35;;;;;;;;;;;;;;;;;;4996250;28;7049;-57
2022/07/05 13:53:01;;;;;;;;;;;;;;;;;;4995669;28;7060;-56
2022/07/05 13:55:41;;;;;;;;;;;;;;;;;;4995863;28;7377;-57
2022/07/05 13:58:06;;;;;;;;;;;;;;;;;;4981519;28;7352;-56
2022/07/05 14:03:39;;;;;;;;;;;;;;;;;;4976232;28;6964;-56
2022/07/05 14:06:07;;;;;;;;;;;;;;;;;;4976089;28;7276;-57
2022/07/05 14:08:42;;;;;;;;;;;;;;;;;;4974863;28;6993;-57
2022/07/05 14:11:09;;;;;;;;;;;;;;;;;;4975812;28;7266;-57
2022/07/05 14:13:36;;;;;;;;;;;;;;;;;;4976018;28;7216;-57
2022/07/05 14:16:02;;;;;;;;;;;;;;;;;;4974323;28;8452;-55
2022/07/05 14:18:30;;;;;;;;;;;;;;;;;;4975259;28;7164;-59
2022/07/05 14:20:57;;;;;;;;;;;;;;;;;;4974763;28;8468;-60
2022/07/05 14:23:24;;;;;;;;;;;;;;;;;;4958114;28;8594;-59
2022/07/05 14:25:52;;;;;;;;;;;;;;;;;;4975814;28;7058;-60
2022/07/05 14:28:19;;;;;;;;;;;;;;;;;;4974010;28;7136;-60
2022/07/05 14:30:51;;;;;;;;;;;;;;;;;;4975001;28;7244;-59
2022/07/05 14:33:17;;;;;;;;;;;;;;;;;;4975519;28;6950;-58
2022/07/05 14:38:33;;;;;;;;;;;;;;;;;;4975648;28;7217;-57
2022/07/05 14:41:25;;;;;;;;;;;;;;;;;;4975802;28;6940;-59
2022/07/05 14:43:53;;;;;;;;;;;;;;;;;;4956339;28;7542;-57
2022/07/05 14:46:26;;;;;;;;;;;;;;;;;;4969764;28;7122;-57
2022/07/05 14:48:51;;;;;;;;;;;;;;;;;;4975483;28;7253;-56
2022/07/05 14:54:20;;;;;;;;;;;;;;;;;;4975476;28;6728;-57
2022/07/05 14:56:53;;;;;;;;;;;;;;;;;;4975614;28;6960;-57
2022/07/05 14:59:19;;;;;;;;;;;;;;;;;;4975279;28;8649;-56
2022/07/05 15:01:52;;;;;;;;;;;;;;;;;;4974969;28;7472;-58
2022/07/05 15:04:18;;;;;;;;;;;;;;;;;;4975725;28;7136;-58
2022/07/05 15:09:47;;;;;;;;;;;;;;;;;;4974883;28;7427;-59
2022/07/05 15:12:13;;;;;;;;;;;;;;;;;;4975493;28;7427;-59
2022/07/05 15:14:38;;;;;;;;;;;;;;;;;;4975380;28;7391;-60
2022/07/05 15:17:15;;;;;;;;;;;;;;;;;;4975624;28;7127;-59
2022/07/05 15:19:40;;;;;;;;;;;;;;;;;;4975406;28;7096;-60
2022/07/05 15:22:28;;;;;;;;;;;;;;;;;;4978695;28;7206;-58
2022/07/05 15:24:54;;;;;;;;;;;;;;;;;;4979658;28;7678;-58
2022/07/05 15:27:20;;;;;;;;;;;;;;;;;;4979796;28;7478;-58
2022/07/05 15:29:53;;;;;;;;;;;;;;;;;;4979234;28;7591;-58
2022/07/05 15:32:19;;;;;;;;;;;;;;;;;;4979003;28;7232;-58
2022/07/05 15:37:50;;;;;;;;;;;;;;;;;;4979159;28;6704;-58
2022/07/05 15:40:15;;;;;;;;;;;;;;;;;;4979597;28;6842;-57
2022/07/05 15:42:41;;;;;;;;;;;;;;;;;;4979271;28;6890;-57
2022/07/05 15:45:06;;;;;;;;;;;;;;;;;;4978957;28;6975;-57
2022/07/05 15:47:34;;;;;;;;;;;;;;;;;;4979092;28;7284;-58
2022/07/05 15:50:00;;;;;;;;;;;;;;;;;;4979042;28;7140;-58
2022/07/05 15:55:20;;;;;;;;;;;;;;;;;;4979217;28;7040;-58
2022/07/05 15:57:46;;;;;;;;;;;;;;;;;;4978817;28;7293;-57
2022/07/05 16:00:12;;;;;;;;;;;;;;;;;;4979139;28;7176;-58
2022/07/05 16:02:48;;;;;;;;;;;;;;;;;;4978767;28;7198;-58
2022/07/05 16:05:13;;;;;;;;;;;;;;;;;;4978827;28;7150;-57
2022/07/05 16:07:39;;;;;;;;;;;;;;;;;;4978377;28;8389;-58
2022/07/05 16:10:12;;;;;;;;;;;;;;;;;;4961354;28;8456;-58
2022/07/05 16:12:38;;;;;;;;;;;;;;;;;;4978562;28;7296;-57
2022/07/05 16:18:11;;;;;;;;;;;;;;;;;;4978367;28;7061;-57
2022/07/05 16:20:40;;;;;;;;;;;;;;;;;;4978669;28;7188;-58
2022/07/05 16:23:32;;;;;;;;;;;;;;;;;;4978876;28;7394;-57
2022/07/05 16:25:59;;;;;;;;;;;;;;;;;;4978268;28;7049;-57
2022/07/05 16:28:37;;;;;;;;;;;;;;;;;;4938243;29;6838;-57
2022/07/05 16:31:18;;;;;;;;;;;;;;;;;;4937709;29;7128;-57
2022/07/05 16:33:48;;;;;;;;;;;;;;;;;;4938035;29;7113;-57
2022/07/05 16:36:33;;;;;;;;;;;;;;;;;;4937903;29;7257;-55
2022/07/05 16:39:01;;;;;;;;;;;;;;;;;;4937685;29;7169;-57
2022/07/05 16:44:30;;;;;;;;;;;;;;;;;;4930128;29;6725;-56
2022/07/05 16:47:25;;;;;;;;;;;;;;;;;;4937694;29;7240;-57
2022/07/05 16:49:52;;;;;;;;;;;;;;;;;;4929056;29;11448;-57
2022/07/05 16:55:20;;;;;;;;;;;;;;;;;;4938039;29;6699;-56
2022/07/05 17:00:39;;;;;;;;;;;;;;;;;;4930831;29;6980;-55
2022/07/05 17:03:06;;;;;;;;;;;;;;;;;;4937417;29;7417;-56
2022/07/05 17:05:32;;;;;;;;;;;;;;;;;;4937843;29;7056;-57
2022/07/05 17:08:06;;;;;;;;;;;;;;;;;;4939277;29;6844;-56
2022/07/05 17:10:31;;;;;;;;;;;;;;;;;;4939884;29;7951;-57
2022/07/05 17:12:59;;;;;;;;;;;;;;;;;;4939686;29;7211;-57
2022/07/05 17:15:24;;;;;;;;;;;;;;;;;;4939125;29;7320;-57
2022/07/05 17:20:42;;;;;;;;;;;;;;;;;;4939546;29;6999;-57
2022/07/05 17:23:19;;;;;;;;;;;;;;;;;;4938934;29;7353;-58
2022/07/05 17:25:44;;;;;;;;;;;;;;;;;;4939090;29;7224;-56
2022/07/05 17:28:13;;;;;;;;;;;;;;;;;;4938852;29;7374;-56
2022/07/05 17:30:41;;;;;;;;;;;;;;;;;;4937489;29;8432;-56
2022/07/05 17:33:06;;;;;;;;;;;;;;;;;;4938915;29;6922;-57
2022/07/05 17:35:32;;;;;;;;;;;;;;;;;;4940040;29;7070;-54
2022/07/05 17:38:02;;;;;;;;;;;;;;;;;;4938643;29;7169;-57
2022/07/05 17:40:28;;;;;;;;;;;;;;;;;;4938733;29;7091;-57
2022/07/05 17:43:05;;;;;;;;;;;;;;;;;;4938216;29;7147;-57
2022/07/05 17:45:31;;;;;;;;;;;;;;;;;;4938538;29;7412;-57
2022/07/05 17:47:56;;;;;;;;;;;;;;;;;;4938836;29;7092;-57
2022/07/05 17:50:38;;;;;;;;;;;;;;;;;;4937318;29;8771;-57
2022/07/05 17:53:03;;;;;;;;;;;;;;;;;;4938460;29;6981;-56
2022/07/05 17:58:32;;;;;;;;;;;;;;;;;;4938261;29;6725;-58
2022/07/05 18:00:57;;;;;;;;;;;;;;;;;;4938645;29;7134;-56
2022/07/05 18:03:33;;;;;;;;;;;;;;;;;;4938606;29;7231;-56
2022/07/05 18:05:59;;;;;;;;;;;;;;;;;;4938626;29;7495;-57
2022/07/05 18:08:34;;;;;;;;;;;;;;;;;;4938535;29;7459;-57
2022/07/05 18:11:00;;;;;;;;;;;;;;;;;;4937970;29;7448;-56
2022/07/05 18:13:26;;;;;;;;;;;;;;;;;;4936693;29;7044;-57
2022/07/05 18:16:06;;;;;;;;;;;;;;;;;;4937731;29;7411;-57
2022/07/05 18:18:32;;;;;;;;;;;;;;;;;;4937742;29;6911;-57
2022/07/05 18:21:09;;;;;;;;;;;;;;;;;;4938038;29;6988;-57
2022/07/05 18:23:35;;;;;;;;;;;;;;;;;;4937968;29;7210;-56
2022/07/05 18:26:23;;;;;;;;;;;;;;;;;;4938061;29;7048;-57
2022/07/05 18:28:49;;;;;;;;;;;;;;;;;;4937216;29;7006;-55
2022/07/05 18:34:12;;;;;;;;;;;;;;;;;;4938358;29;7079;-57
2022/07/05 18:36:37;;;;;;;;;;;;;;;;;;4937399;29;7635;-57
2022/07/05 18:39:14;;;;;;;;;;;;;;;;;;4937960;29;6934;-58
2022/07/05 18:41:40;;;;;;;;;;;;;;;;;;4937873;29;7075;-61
2022/07/05 18:44:05;;;;;;;;;;;;;;;;;;4937801;29;6981;-62
2022/07/05 18:46:31;;;;;;;;;;;;;;;;;;4937355;29;7393;-62
2022/07/05 18:49:00;;;;;;;;;;;;;;;;;;4937439;29;7244;-61
2022/07/05 18:54:17;;;;;;;;;;;;;;;;;;4938161;29;7018;-61
2022/07/05 18:56:42;;;;;;;;;;;;;;;;;;4937565;29;7342;-62
2022/07/05 18:59:17;;;;;;;;;;;;;;;;;;4937851;29;6958;-62
2022/07/05 19:01:42;;;;;;;;;;;;;;;;;;4937500;29;7215;-62
2022/07/05 19:04:26;;;;;;;;;;;;;;;;;;4937865;29;6827;-62
2022/07/05 19:15:41;;;;;;;;;;;;;;;;;;4937874;29;6792;-62
2022/07/05 19:18:32;;;;;;;;;;;;;;;;;;4937784;29;6845;-62
2022/07/05 19:20:58;;;;;;;;;;;;;;;;;;4937960;29;6839;-61
2022/07/05 19:23:28;;;;;;;;;;;;;;;;;;4937333;29;6829;-61
2022/07/05 19:25:53;;;;;;;;;;;;;;;;;;4937042;29;7989;-61
2022/07/05 19:28:20;;;;;;;;;;;;;;;;;;4937713;29;7153;-62
2022/07/05 19:33:53;;;;;;;;;;;;;;;;;;4918427;29;6715;-61